2022年8月16日

时间 代码 天气 温度 能见度 天花板 METAR/SPECI
14:00
V
28 °C 10 km+ - Var Var 3 kt METAR LFBA 161200Z AUTO VRB03KT 9999 ///TCU 28/16 Q1007 TEMPO VRB20G30KT 4000 BECMG FEW050CB BKN100
13:30
V
27 °C 10 km+ - 300° 300° 5 kt METAR LFBA 161130Z AUTO 30005KT 250V040 CAVOK 27/15 Q1007 TEMPO VRB20G30KT 4000 BECMG FEW050CB BKN100
13:00
V
26 °C 10 km+ - 030° 030° 3 kt METAR LFBA 161100Z AUTO 03003KT 300V080 CAVOK 26/15 Q1007 TEMPO VRB20G30KT 4000 BECMG FEW050CB BKN100
12:30
V
24 °C 10 km+ - Var Var 3 kt METAR LFBA 161030Z AUTO VRB03KT CAVOK 24/16 Q1007 TEMPO VRB20G30KT 4000 BECMG FEW050CB BKN100
12:00
V
23 °C 10 km+ - 290° 290° 6 kt METAR LFBA 161000Z AUTO 29006KT 260V340 CAVOK 23/16 Q1007 TEMPO VRB20G30KT 4000 BECMG FEW050CB BKN100
11:30
V
22 °C 10 km+ - 290° 290° 8 kt METAR LFBA 160930Z AUTO 29008KT 9999 ///TCU 22/16 Q1007 TEMPO VRB20G30KT 4000 BECMG FEW050CB BKN100
11:00
V
22 °C 10 km+ - 330° 330° 6 kt METAR LFBA 160900Z AUTO 33006KT 9999 ///TCU 22/15 Q1006 TEMPO TSRA BECMG FEW050CB BKN100
10:30
V
22 °C 10 km+ - 110° 110° 5 kt METAR LFBA 160830Z AUTO 11005KT 070V140 9999 ///TCU 22/15 Q1006 BECMG FEW060CB
10:00
V
21 °C 10 km+ - 070° 070° 3 kt METAR LFBA 160800Z AUTO 07003KT 040V100 9999 ///TCU 21/15 Q1006 TEMPO 30010KT BECMG FEW060CB
09:30
V
20 °C 10 km+ - Var Var 3 kt METAR LFBA 160730Z AUTO VRB03KT 9999 //////TCU 20/15 Q1006 BECMG FEW060CB
09:00
V
19 °C 10 km+ - 110° 110° 7 kt METAR LFBA 160700Z AUTO 11007KT CAVOK 19/16 Q1006 BECMG 30010KT
08:30
V
18 °C 10 km+ - 100° 100° 5 kt METAR LFBA 160630Z AUTO 10005KT CAVOK 18/16 Q1006 BECMG 30010KT
08:00
V
18 °C 10 km+ - 100° 100° 4 kt METAR LFBA 160600Z AUTO 10004KT CAVOK 18/16 Q1006 BECMG 30010KT
07:30
V
16 °C 10 km+ - 120° 120° 4 kt METAR LFBA 160530Z AUTO 12004KT CAVOK 16/16 Q1006 BECMG 30010KT
07:00
V
15 °C 10 km+ - 090° 090° 2 kt METAR LFBA 160500Z AUTO 09002KT CAVOK 15/14 Q1006
06:30
V
16 °C 10 km+ - 290° 290° 2 kt METAR LFBA 160430Z AUTO 29002KT CAVOK 16/15 Q1007
06:00
V
15 °C 10 km+ - Var 000° 0 kt METAR LFBA 160400Z AUTO 00000KT CAVOK 15/15 Q1007
05:30
V
16 °C 10 km+ - 290° 290° 2 kt METAR LFBA 160330Z AUTO 29002KT CAVOK 16/15 Q1007
05:00
V
16 °C 10 km+ - Var 000° 0 kt METAR LFBA 160300Z AUTO 00000KT CAVOK 16/15 Q1007
04:30
V
16 °C 10 km+ - Var 000° 0 kt METAR LFBA 160230Z AUTO 00000KT CAVOK 16/15 Q1008
04:00
V
16 °C 10 km+ - Var 000° 0 kt METAR LFBA 160200Z AUTO 00000KT CAVOK 16/15 Q1008
03:30
V
17 °C 10 km+ - Var Var 2 kt METAR LFBA 160130Z AUTO VRB02KT CAVOK 17/15 Q1008
03:00
V
17 °C 10 km+ - 290° 290° 1 kt METAR LFBA 160100Z AUTO 29001KT CAVOK 17/15 Q1008
02:30
V
17 °C 10 km+ - Var 000° 0 kt METAR LFBA 160030Z AUTO 00000KT CAVOK 17/14 Q1009
02:00
V
18 °C 10 km+ - 230° 230° 2 kt METAR LFBA 160000Z AUTO 23002KT CAVOK 18/15 Q1009
01:30
V
19 °C 10 km+ - 260° 260° 2 kt METAR LFBA 152330Z AUTO 26002KT CAVOK 19/15 Q1009
01:00
V
19 °C 10 km+ - 270° 270° 3 kt METAR LFBA 152300Z AUTO 27003KT CAVOK 19/15 Q1009
00:30
V
21 °C 10 km+ - 270° 270° 2 kt METAR LFBA 152230Z AUTO 27002KT CAVOK 21/15 Q1009
00:00
V
21 °C 10 km+ - 270° 270° 4 kt METAR LFBA 152200Z AUTO 27004KT CAVOK 21/15 Q1009

2022年8月15日

时间 代码 天气 温度 能见度 天花板 METAR/SPECI
23:30
V
21 °C 10 km+ - 270° 270° 3 kt METAR LFBA 152130Z AUTO 27003KT CAVOK 21/15 Q1009
23:00
V
22 °C 10 km+ - 290° 290° 2 kt METAR LFBA 152100Z AUTO 29002KT CAVOK 22/15 Q1009
22:30
V
22 °C 10 km+ - 290° 290° 3 kt METAR LFBA 152030Z AUTO 29003KT CAVOK 22/15 Q1009
22:00
V
23 °C 10 km+ - 300° 300° 5 kt METAR LFBA 152000Z AUTO 30005KT CAVOK 23/15 Q1009 NOSIG
21:30
L
24 °C 1 km - 300° 300° 3 kt METAR LFBA 151930Z AUTO 30003KT 5000 1000 R29/P2000 HZ NSC 24/15 Q1009 NOSIG
21:00
V
26 °C 10 km+ - 300° 300° 5 kt METAR LFBA 151900Z AUTO 30005KT CAVOK 26/15 Q1008 NOSIG
20:30
V
27 °C 10 km+ - 310° 310° 5 kt METAR LFBA 151830Z AUTO 31005KT CAVOK 27/15 Q1008 NOSIG
20:00
V
27 °C 10 km+ - 330° 330° 3 kt METAR LFBA 151800Z AUTO 33003KT CAVOK 27/15 Q1008 NOSIG
19:30
V
28 °C 10 km+ - 340° 340° 6 kt METAR LFBA 151730Z AUTO 34006KT CAVOK 28/15 Q1008 NOSIG
19:00
V
28 °C 10 km+ - 320° 320° 6 kt METAR LFBA 151700Z AUTO 32006KT CAVOK 28/15 Q1008 NOSIG
18:30
V
28 °C 10 km+ - 300° 300° 7 kt METAR LFBA 151630Z AUTO 30007KT 230V340 CAVOK 28/14 Q1008 NOSIG
18:00
V
28 °C 10 km+ - 340° 340° 4 kt METAR LFBA 151600Z AUTO 34004KT 300V060 CAVOK 28/15 Q1008 NOSIG
17:30
V
28 °C 10 km+ - 320° 320° 6 kt METAR LFBA 151530Z AUTO 32006KT 270V360 CAVOK 28/15 Q1008 NOSIG
17:00
V
28 °C 10 km+ - Var Var 3 kt METAR LFBA 151500Z AUTO VRB03KT CAVOK 28/14 Q1008 NOSIG
16:30
V
28 °C 10 km+ - 280° 280° 5 kt METAR LFBA 151430Z AUTO 28005KT 210V350 CAVOK 28/15 Q1009 NOSIG
16:00
V
28 °C 10 km+ - 320° 320° 5 kt METAR LFBA 151400Z AUTO 32005KT 240V010 CAVOK 28/15 Q1009 NOSIG
15:30
V
27 °C 10 km+ - 310° 310° 8 kt METAR LFBA 151330Z AUTO 31008KT 270V340 CAVOK 27/15 Q1009 NOSIG
15:00
V
29 °C 10 km+ - 260° 260° 7 kt METAR LFBA 151300Z AUTO 26007KT 210V340 CAVOK 29/14 Q1009 NOSIG
14:30
V
28 °C 10 km+ - 240° 240° 5 kt METAR LFBA 151230Z AUTO 24005KT 150V310 CAVOK 28/14 Q1009 NOSIG
14:00
V
27 °C 10 km+ - 230° 230° 7 kt METAR LFBA 151200Z AUTO 23007KT 170V280 9999 SCT047 27/15 Q1010 NOSIG
13:30
V
27 °C 10 km+ 7.200 ft 230° 230° 7 kt METAR LFBA 151130Z AUTO 23007KT 180V270 9999 FEW042 BKN072 27/15 Q1010 NOSIG
13:00
V
26 °C 10 km+ 7.200 ft 270° 270° 7 kt METAR LFBA 151100Z AUTO 27007KT 230V330 9999 SCT042 BKN072 26/15 Q1010 NOSIG
12:30
V
26 °C 10 km+ 5.600 ft 230° 230° 6 kt METAR LFBA 151030Z AUTO 23006KT 170V260 9999 SCT040 BKN056 BKN074 26/15 Q1010 NOSIG
12:00
V
25 °C 10 km+ - 260° 260° 6 kt METAR LFBA 151000Z AUTO 26006KT 230V290 9999 FEW038 25/16 Q1010 NOSIG
11:30
V
25 °C 10 km+ - 280° 280° 7 kt METAR LFBA 150930Z AUTO 28007KT 240V330 9999 SCT034 25/16 Q1010 NOSIG
11:00
V
25 °C 10 km+ - 250° 250° 9 kt METAR LFBA 150900Z AUTO 25009KT 210V290 CAVOK 25/16 Q1010 NOSIG
10:30
V
23 °C 10 km+ - 280° 280° 8 kt METAR LFBA 150830Z AUTO 28008KT 240V310 CAVOK 23/16 Q1010 NOSIG
10:00
V
22 °C 10 km+ - 270° 270° 6 kt METAR LFBA 150800Z AUTO 27006KT 240V300 CAVOK 22/16 Q1010 NOSIG
09:30
V
21 °C 10 km+ - 270° 270° 6 kt METAR LFBA 150730Z AUTO 27006KT 220V290 CAVOK 21/16 Q1010 NOSIG
09:00
V
20 °C 10 km+ - Var Var 3 kt METAR LFBA 150700Z AUTO VRB03KT CAVOK 20/16 Q1011 NOSIG
08:30
V
19 °C 10 km+ - 290° 290° 5 kt METAR LFBA 150630Z AUTO 29005KT 260V320 CAVOK 19/16 Q1011 NOSIG
08:00
V
17 °C 10 km+ - Var Var 2 kt METAR LFBA 150600Z AUTO VRB02KT CAVOK 17/16 Q1011 NOSIG
07:30
V
16 °C 10 km+ - 060° 060° 2 kt METAR LFBA 150530Z AUTO 06002KT 9999 FEW040 16/15 Q1011 NOSIG
07:00
V
16 °C 10 km+ 3.700 ft Var 000° 0 kt METAR LFBA 150500Z AUTO 00000KT 9999 BKN037 16/16 Q1010
06:30
V
16 °C 10 km+ - 090° 090° 2 kt METAR LFBA 150430Z AUTO 09002KT CAVOK 16/15 Q1011
06:00
V
16 °C 10 km+ - Var 000° 0 kt METAR LFBA 150400Z AUTO 00000KT CAVOK 16/15 Q1011
05:30
V
17 °C 10 km+ - 150° 150° 2 kt METAR LFBA 150330Z AUTO 15002KT CAVOK 17/16 Q1011
05:00
V
17 °C 10 km+ - Var Var 2 kt METAR LFBA 150300Z AUTO VRB02KT CAVOK 17/16 Q1011
04:30
V
18 °C 10 km+ - 280° 280° 3 kt METAR LFBA 150230Z AUTO 28003KT CAVOK 18/16 Q1011
04:00
V
17 °C 10 km+ - Var Var 3 kt METAR LFBA 150200Z AUTO VRB03KT CAVOK 17/15 Q1011
03:30
V
17 °C 10 km+ - 220° 220° 2 kt METAR LFBA 150130Z AUTO 22002KT CAVOK 17/16 Q1011
03:00
V
17 °C 10 km+ - 210° 210° 3 kt METAR LFBA 150100Z AUTO 21003KT CAVOK 17/16 Q1011
02:30
V
17 °C 10 km+ - Var Var 2 kt METAR LFBA 150030Z AUTO VRB02KT CAVOK 17/15 Q1011
02:00
V
18 °C 10 km+ - Var 000° 0 kt METAR LFBA 150000Z AUTO 00000KT CAVOK 18/15 Q1011
01:30
V
19 °C 10 km+ - Var Var 2 kt METAR LFBA 142330Z AUTO VRB02KT CAVOK 19/15 Q1011
01:00
V
19 °C 10 km+ - 280° 280° 2 kt METAR LFBA 142300Z AUTO 28002KT CAVOK 19/15 Q1011
00:30
V
19 °C 10 km+ - Var Var 2 kt METAR LFBA 142230Z AUTO VRB02KT CAVOK 19/16 Q1011
00:00
V
20 °C 10 km+ - 240° 240° 2 kt METAR LFBA 142200Z AUTO 24002KT CAVOK 20/16 Q1011

2022年8月14日

时间 代码 天气 温度 能见度 天花板 METAR/SPECI
23:30
V
20 °C 10 km+ - 280° 280° 1 kt METAR LFBA 142130Z AUTO 28001KT CAVOK 20/16 Q1011
23:00
V
20 °C 10 km+ - 280° 280° 1 kt METAR LFBA 142100Z AUTO 28001KT CAVOK 20/16 Q1011
22:30
V
21 °C 10 km+ - 270° 270° 3 kt METAR LFBA 142030Z AUTO 27003KT CAVOK 21/16 Q1011
22:00
V
21 °C 10 km+ - 280° 280° 3 kt METAR LFBA 142000Z AUTO 28003KT CAVOK 21/16 Q1011 NOSIG
21:30
I
22 °C 3 km - 280° 280° 5 kt METAR LFBA 141930Z AUTO 28005KT 8000 3000 NSC 22/16 Q1010 NOSIG
21:00
V
23 °C 10 km+ - 290° 290° 7 kt METAR LFBA 141900Z AUTO 29007KT CAVOK 23/16 Q1010 NOSIG
20:30
V
25 °C 10 km+ - 320° 320° 10 kt METAR LFBA 141830Z AUTO 32010KT 280V340 CAVOK 25/16 Q1010 NOSIG
20:00
V
25 °C 10 km+ - 310° 310° 9 kt METAR LFBA 141800Z AUTO 31009KT 9999 FEW045 25/17 Q1010 NOSIG
19:30
V
26 °C 10 km+ - 320° 320° 6 kt METAR LFBA 141730Z AUTO 32006KT 280V360 9999 FEW044 SCT056 26/17 Q1009 NOSIG
19:00
V
27 °C 10 km+ - 300° 300° 7 kt METAR LFBA 141700Z AUTO 30007KT 270V340 9999 FEW038 27/17 Q1009 TEMPO SCT040TCU
18:30
V
27 °C 10 km+ - 360° 360° 4 kt METAR LFBA 141630Z AUTO 36004KT 300V050 9999 SCT038 SCT044 27/17 Q1010 TEMPO SCT040TCU
18:00
V
26 °C 10 km+ - 010° 010° 4 kt METAR LFBA 141600Z AUTO 01004KT 260V050 9999 FEW033 26/18 Q1010 TEMPO SCT040TCU
17:30
V
26 °C 10 km+ 3.100 ft Var Var 4 kt METAR LFBA 141530Z AUTO VRB04KT 9999 BKN031 BKN038 BKN044 26/18 Q1010 TEMPO SCT040TCU
17:00
V
26 °C 10 km+ - Var Var 4 kt METAR LFBA 141500Z AUTO VRB04KT 9999 FEW027 26/18 Q1010 TEMPO SCT040TCU
16:30
V
26 °C 10 km+ - 320° 320° 8 kt METAR LFBA 141430Z AUTO 32008KT 290V350 9999 FEW027 26/18 Q1011 TEMPO SCT040TCU
16:00
V
25 °C 10 km+ 5.800 ft 320° 320° 10 kt METAR LFBA 141400Z AUTO 32010KT 290V350 9999 FEW021 BKN058 25/18 Q1011 TEMPO SCT040TCU
15:30
M
24 °C 10 km+ 2.200 ft 310° 310° 12 kt METAR LFBA 141330Z AUTO 31012KT 290V360 9999 BKN022 BKN030 OVC036 24/19 Q1011 TEMPO SCT040TCU
15:00
V
25 °C 10 km+ 3.300 ft 270° 270° 9 kt METAR LFBA 141300Z AUTO 27009KT 240V300 9999 SCT025 BKN033 BKN043 25/19 Q1011 TEMPO 4000 -TSRA BECMG SCT010 BKN020 FEW080CB
14:30
V
24 °C 10 km+ 5.200 ft 280° 280° 8 kt METAR LFBA 141230Z AUTO 28008KT 250V320 9999 FEW022/// BKN052/// ///TCU 24/18 Q1011 TEMPO 4000 -TSRA BECMG SCT010 BKN020 FEW080CB
14:00
V
24 °C 10 km+ 4.500 ft 270° 270° 7 kt METAR LFBA 141200Z AUTO 27007KT 240V300 9999 FEW018 BKN045 BKN060 24/19 Q1011 TEMPO 4000 -TSRA BKN025TCU SCT070CB
较旧的数据

我们和第三方通过cookies跟踪您在我们网站上的上网行为。如果您继续,我们认为您同意我们的cookie政策。 了解更多